createdAt,value
2023-01-23T00:00:00.686Z,102932.94
2023-01-23T00:01:04.315Z,102926.78
2023-01-23T00:02:06.878Z,102934.66
2023-01-23T00:03:08.729Z,102925.06
2023-01-23T00:04:14.146Z,102932.94
2023-01-23T00:05:15.766Z,102938.22
2023-01-23T00:06:18.996Z,102936.47
2023-01-23T00:07:20.496Z,102939.09
2023-01-23T00:08:23.016Z,102942.59
2023-01-23T00:09:25.855Z,102929.44
2023-01-23T00:10:27.514Z,102936.47
2023-01-23T00:11:31.882Z,102934.72
2023-01-23T00:12:34.761Z,102936.41
2023-01-23T00:13:37.366Z,102937.28
2023-01-23T00:14:38.890Z,102937.28
2023-01-23T00:15:41.471Z,102939.03
2023-01-23T00:16:42.994Z,102932.88
2023-01-23T00:17:46.349Z,102926.72
2023-01-23T00:18:48.525Z,102932.84
2023-01-23T00:19:53.900Z,102928.47
2023-01-23T00:20:55.420Z,102937.16
2023-01-23T00:22:00.673Z,102931.91
2023-01-23T00:23:02.296Z,102937.16
2023-01-23T00:24:05.450Z,102933.66
2023-01-23T00:25:07.549Z,102931.91
2023-01-23T00:26:12.410Z,102929.28
2023-01-23T00:27:15.262Z,102940.72
2023-01-23T00:28:18.112Z,102935.47
2023-01-23T00:29:20.594Z,102930.19
2023-01-23T00:30:22.087Z,102921.47
2023-01-23T00:31:27.108Z,102919.75
2023-01-23T00:32:28.727Z,102933.72
2023-01-23T00:33:31.647Z,102931.97
2023-01-23T00:34:33.795Z,102926.69
2023-01-23T00:35:36.392Z,102925.88
2023-01-23T00:36:39.748Z,102932.88
2023-01-23T00:37:42.408Z,102928.53
2023-01-23T00:38:44.451Z,102929.38
2023-01-23T00:39:47.121Z,102925.88
2023-01-23T00:40:48.860Z,102933.78
2023-01-23T00:41:51.514Z,102933.78
2023-01-23T00:42:53.546Z,102933.78
2023-01-23T00:43:57.393Z,102932.88
2023-01-23T00:44:58.926Z,102931.13
2023-01-23T00:46:01.934Z,102930.25
2023-01-23T00:47:03.595Z,102922.34
2023-01-23T00:48:06.346Z,102924.06
2023-01-23T00:49:08.199Z,102935.47
2023-01-23T00:50:12.320Z,102930.19
2023-01-23T00:51:14.548Z,102931.06
2023-01-23T00:52:17.118Z,102924.03
2023-01-23T00:53:19.326Z,102924.03
2023-01-23T00:54:21.847Z,102931.09
2023-01-23T00:55:23.404Z,102921.44
2023-01-23T00:56:26.026Z,102921.47
2023-01-23T00:57:28.080Z,102925.88
2023-01-23T00:58:30.640Z,102931.13
2023-01-23T00:59:34.452Z,102926.78
2023-01-23T01:00:36.550Z,102931.16
2023-01-23T01:01:39.365Z,102930.31
2023-01-23T01:02:47.196Z,102925.06
2023-01-23T01:03:50.003Z,102937.28
2023-01-23T01:04:51.643Z,102941.66
2023-01-23T01:05:54.219Z,102936.47
2023-01-23T01:06:56.197Z,102941.72
2023-01-23T01:07:59.206Z,102940.88
2023-01-23T01:09:00.842Z,102946.16
2023-01-23T01:10:03.716Z,102939.16
2023-01-23T01:11:05.898Z,102936.53
2023-01-23T01:12:08.600Z,102940.91
2023-01-23T01:13:10.977Z,102941.78
2023-01-23T01:14:13.658Z,102940.91
2023-01-23T01:15:16.692Z,102946.16
2023-01-23T01:16:19.693Z,102947.03
2023-01-23T01:17:21.351Z,102949.66
2023-01-23T01:18:24.221Z,102952.25
2023-01-23T01:19:28.104Z,102961.91
2023-01-23T01:20:31.073Z,102954.88
2023-01-23T01:21:33.145Z,102953.09
2023-01-23T01:22:35.637Z,102953.16
2023-01-23T01:23:38.637Z,102958.41
2023-01-23T01:24:42.291Z,102960.22
2023-01-23T01:25:44.541Z,102947.09
2023-01-23T01:26:47.039Z,102961.09
2023-01-23T01:27:48.645Z,102957.59
2023-01-23T01:28:51.240Z,102962.88
2023-01-23T01:29:52.854Z,102963.72
2023-01-23T01:30:56.786Z,102955.84
2023-01-23T01:31:58.675Z,102959.38
2023-01-23T01:33:01.217Z,102954.09
2023-01-23T01:34:03.136Z,102958.53
2023-01-23T01:35:07.060Z,102962.00
2023-01-23T01:36:10.492Z,102955.91
2023-01-23T01:37:13.344Z,102962.91
2023-01-23T01:38:14.849Z,102963.78
2023-01-23T01:39:17.384Z,102963.78
2023-01-23T01:40:21.801Z,102963.78
2023-01-23T01:41:24.471Z,102963.78
2023-01-23T01:42:28.313Z,102957.66
2023-01-23T01:43:31.761Z,102961.16
2023-01-23T01:44:52.364Z,102957.59
2023-01-23T01:46:17.637Z,102954.97
2023-01-23T01:47:19.183Z,102946.16
2023-01-23T01:48:25.500Z,102940.91
2023-01-23T01:49:32.240Z,102955.84
2023-01-23T01:50:35.274Z,102957.59
2023-01-23T01:51:42.081Z,102956.75
2023-01-23T01:52:44.409Z,102964.59
2023-01-23T01:53:49.815Z,102966.34
2023-01-23T01:54:57.958Z,102967.25
2023-01-23T01:56:00.394Z,102967.25
2023-01-23T01:57:07.592Z,102967.28
2023-01-23T01:58:09.708Z,102971.66
2023-01-23T01:59:13.990Z,102972.56
2023-01-23T02:00:19.522Z,102969.97
2023-01-23T02:01:23.553Z,102964.72
2023-01-23T02:02:29.296Z,102973.47
2023-01-23T02:03:31.884Z,102979.56
2023-01-23T02:04:36.334Z,102976.03
2023-01-23T02:05:42.584Z,102970.78
2023-01-23T02:06:44.300Z,102976.03
2023-01-23T02:07:54.234Z,102976.06
2023-01-23T02:09:04.693Z,102973.44
2023-01-23T02:10:07.735Z,102977.81
2023-01-23T02:11:10.578Z,102976.97
2023-01-23T02:12:13.426Z,102981.38
2023-01-23T02:13:20.855Z,102982.25
2023-01-23T02:14:25.607Z,102983.16
2023-01-23T02:15:27.261Z,102978.78
2023-01-23T02:16:40.042Z,102984.91
2023-01-23T02:17:43.389Z,102982.28
2023-01-23T02:18:49.821Z,102986.66
2023-01-23T02:19:59.536Z,102988.38
2023-01-23T02:21:06.508Z,102980.53
2023-01-23T02:22:20.592Z,102983.19
2023-01-23T02:23:33.630Z,102991.06
2023-01-23T02:24:42.710Z,102982.31
2023-01-23T02:25:54.972Z,102987.59
2023-01-23T02:26:57.778Z,102987.59
2023-01-23T02:27:59.461Z,102989.34
2023-01-23T02:29:01.988Z,102991.94
2023-01-23T02:30:06.071Z,102989.34
2023-01-23T02:31:09.590Z,102988.44
2023-01-23T02:32:11.751Z,102999.81
2023-01-23T02:33:46.094Z,102994.56
2023-01-23T02:34:48.808Z,102995.44
2023-01-23T02:35:50.845Z,102987.53
2023-01-23T02:36:53.359Z,102996.28
2023-01-23T02:38:00.349Z,102987.53
2023-01-23T02:39:07.167Z,102988.44
2023-01-23T02:40:10.064Z,102983.22
2023-01-23T02:41:15.452Z,102977.91
2023-01-23T02:42:17.494Z,102974.41
2023-01-23T02:43:24.592Z,102982.28
2023-01-23T02:44:28.568Z,102974.41
2023-01-23T02:45:31.452Z,102970.91
2023-01-23T02:46:33.103Z,102974.41
2023-01-23T02:47:36.093Z,102970.03
2023-01-23T02:48:39.898Z,102970.03
2023-01-23T02:49:43.100Z,102966.53
2023-01-23T02:50:46.321Z,102962.16
2023-01-23T02:51:49.124Z,102956.91
2023-01-23T02:52:51.113Z,102960.41
2023-01-23T02:53:53.935Z,102956.09
2023-01-23T02:54:55.677Z,102953.50
2023-01-23T02:55:58.751Z,102955.28
2023-01-23T02:57:02.034Z,102957.09
2023-01-23T02:58:18.532Z,102952.78
2023-01-23T02:59:38.577Z,102948.47
2023-01-23T03:00:43.918Z,102950.31
2023-01-23T03:01:45.529Z,102949.50
2023-01-23T03:02:48.902Z,102951.34
2023-01-23T03:03:51.646Z,102947.00
2023-01-23T03:04:54.530Z,102947.03
2023-01-23T03:05:56.283Z,102947.97
2023-01-23T03:06:59.135Z,102947.16
2023-01-23T03:08:01.069Z,102939.31
2023-01-23T03:09:10.841Z,102936.75
2023-01-23T03:10:12.947Z,102938.56
2023-01-23T03:11:17.052Z,102940.31
2023-01-23T03:12:20.884Z,102935.13
2023-01-23T03:13:22.392Z,102943.88
2023-01-23T03:14:25.822Z,102937.78
2023-01-23T03:15:27.733Z,102942.22
2023-01-23T03:16:30.352Z,102938.72
2023-01-23T03:17:33.113Z,102943.97
2023-01-23T03:18:48.894Z,102940.50
2023-01-23T03:19:57.596Z,102947.50
2023-01-23T03:21:01.665Z,102949.28
2023-01-23T03:22:04.172Z,102953.63
2023-01-23T03:23:05.741Z,102955.44
2023-01-23T03:24:09.860Z,102947.56
2023-01-23T03:25:11.381Z,102954.59
2023-01-23T03:26:13.968Z,102958.13
2023-01-23T03:27:15.797Z,102959.84
2023-01-23T03:28:33.846Z,102961.66
2023-01-23T03:29:53.918Z,102970.41
2023-01-23T03:30:56.619Z,102967.78
2023-01-23T03:31:58.175Z,102971.28
2023-01-23T03:33:00.696Z,102975.59
2023-01-23T03:34:02.241Z,102979.06
2023-01-23T03:35:05.381Z,102972.03
2023-01-23T03:36:08.002Z,102980.75
2023-01-23T03:37:12.524Z,102975.50
2023-01-23T03:38:15.954Z,102985.94
2023-01-23T03:39:36.338Z,102985.06
2023-01-23T03:40:56.719Z,102981.50
2023-01-23T03:41:59.248Z,102987.59
2023-01-23T03:43:00.793Z,102988.47
2023-01-23T03:44:04.864Z,102985.84
2023-01-23T03:45:07.884Z,102993.66
2023-01-23T03:46:10.831Z,102988.41
2023-01-23T03:47:12.362Z,102992.75
2023-01-23T03:48:14.861Z,102988.38
2023-01-23T03:49:17.156Z,102988.31
2023-01-23T03:50:20.256Z,102994.44
2023-01-23T03:51:21.993Z,102990.94
2023-01-23T03:52:24.523Z,102997.91
2023-01-23T03:53:26.153Z,102997.91
2023-01-23T03:54:28.687Z,102998.75
2023-01-23T03:55:30.252Z,102999.63
2023-01-23T03:56:32.765Z,103005.72
2023-01-23T03:57:34.277Z,102996.13
2023-01-23T03:58:36.787Z,103003.94
2023-01-23T03:59:39.707Z,103000.47
2023-01-23T04:00:42.453Z,103002.16
2023-01-23T04:01:44.083Z,102997.78
2023-01-23T04:02:49.691Z,103006.47
2023-01-23T04:03:51.564Z,102990.72
2023-01-23T04:04:55.404Z,102995.94
2023-01-23T04:05:58.332Z,102995.94
2023-01-23T04:07:01.228Z,102993.31
2023-01-23T04:08:02.900Z,102995.94
2023-01-23T04:09:05.488Z,102995.94
2023-01-23T04:10:07.792Z,102999.44
2023-01-23T04:11:12.063Z,102992.44
2023-01-23T04:12:14.183Z,102993.34
2023-01-23T04:13:17.043Z,103000.34
2023-01-23T04:14:18.606Z,102994.19
2023-01-23T04:15:22.501Z,102981.09
2023-01-23T04:16:24.149Z,102988.09
2023-01-23T04:17:26.651Z,102995.16
2023-01-23T04:18:29.009Z,102994.22
2023-01-23T04:19:31.809Z,102997.78
2023-01-23T04:20:33.348Z,102996.00
2023-01-23T04:21:35.849Z,102989.91
2023-01-23T04:22:37.889Z,102994.28
2023-01-23T04:23:40.439Z,103002.16
2023-01-23T04:24:42.117Z,102994.28
2023-01-23T04:25:44.860Z,102993.41
2023-01-23T04:26:46.547Z,102997.78
2023-01-23T04:27:49.029Z,103003.03
2023-01-23T04:28:50.614Z,102996.03
2023-01-23T04:29:53.108Z,103006.53
2023-01-23T04:30:56.232Z,103005.66
2023-01-23T04:31:58.865Z,102997.78
2023-01-23T04:33:00.637Z,102997.78
2023-01-23T04:34:03.355Z,102987.28
2023-01-23T04:35:05.836Z,102987.28
2023-01-23T04:36:09.081Z,102990.72
2023-01-23T04:37:11.634Z,102989.84
2023-01-23T04:38:13.252Z,102983.75
2023-01-23T04:39:16.093Z,102990.72
2023-01-23T04:40:17.905Z,102988.09
2023-01-23T04:41:22.988Z,102984.59
2023-01-23T04:42:24.515Z,102987.22
2023-01-23T04:43:27.097Z,102987.22
2023-01-23T04:44:37.805Z,102983.69
2023-01-23T04:45:40.337Z,102987.16
2023-01-23T04:46:43.244Z,102988.88
2023-01-23T04:47:48.782Z,102987.13
2023-01-23T04:48:50.311Z,102995.00
2023-01-23T04:50:00.759Z,102991.50
2023-01-23T04:51:03.285Z,102980.06
2023-01-23T04:52:04.915Z,102994.94
2023-01-23T04:53:07.718Z,102983.56
2023-01-23T04:54:09.265Z,102983.56
2023-01-23T04:55:11.882Z,102981.75
2023-01-23T04:56:13.417Z,102983.50
2023-01-23T04:57:15.956Z,102981.75
2023-01-23T04:58:19.417Z,102981.75
2023-01-23T04:59:21.964Z,102983.56
2023-01-23T05:00:23.700Z,102973.94
2023-01-23T05:01:26.261Z,102976.63
2023-01-23T05:02:29.180Z,102971.38
2023-01-23T05:03:32.818Z,102976.63
2023-01-23T05:04:34.326Z,102976.63
2023-01-23T05:05:36.867Z,102970.50
2023-01-23T05:06:38.697Z,102962.63
2023-01-23T05:07:41.715Z,102967.88
2023-01-23T05:08:43.247Z,102971.38
2023-01-23T05:09:45.748Z,102968.78
2023-01-23T05:10:47.294Z,102972.34
2023-01-23T05:11:50.021Z,102984.59
2023-01-23T05:12:51.959Z,102982.91
2023-01-23T05:13:54.492Z,102982.06
2023-01-23T05:14:56.032Z,102989.06
2023-01-23T05:15:58.630Z,102981.22
2023-01-23T05:17:00.146Z,102990.84
2023-01-23T05:18:04.088Z,102989.09
2023-01-23T05:19:05.670Z,102994.34
2023-01-23T05:20:09.536Z,102989.97
2023-01-23T05:21:11.093Z,102999.53
2023-01-23T05:22:13.724Z,102996.00
2023-01-23T05:23:15.411Z,102998.59
2023-01-23T05:24:18.018Z,102998.59
2023-01-23T05:25:21.427Z,103002.94
2023-01-23T05:26:23.946Z,103006.44
2023-01-23T05:27:25.519Z,103000.31
2023-01-23T05:28:28.026Z,103009.88
2023-01-23T05:29:29.698Z,103003.78
2023-01-23T05:30:32.477Z,103004.63
2023-01-23T05:31:34.433Z,103005.50
2023-01-23T05:32:36.987Z,103011.63
2023-01-23T05:33:40.239Z,103002.88
2023-01-23T05:34:42.696Z,103008.13
2023-01-23T05:35:45.561Z,103004.63
2023-01-23T05:36:47.122Z,103009.00
2023-01-23T05:37:51.517Z,103009.88
2023-01-23T05:38:55.137Z,103006.38
2023-01-23T05:39:57.649Z,103016.00
2023-01-23T05:40:59.200Z,103014.31
2023-01-23T05:42:01.881Z,103015.19
2023-01-23T05:43:03.457Z,103019.59
2023-01-23T05:44:06.223Z,103024.84
2023-01-23T05:45:08.098Z,103028.34
2023-01-23T05:46:10.624Z,103017.84
2023-01-23T05:47:12.196Z,103025.69
2023-01-23T05:48:15.010Z,103025.69
2023-01-23T05:49:18.854Z,103024.78
2023-01-23T05:50:23.644Z,103022.16
2023-01-23T05:51:31.499Z,103018.66
2023-01-23T05:52:33.111Z,103018.66
2023-01-23T05:53:35.587Z,103024.81
2023-01-23T05:54:37.109Z,103022.22
2023-01-23T05:55:39.941Z,103023.97
2023-01-23T05:56:42.533Z,103016.97
2023-01-23T05:57:44.049Z,103009.97
2023-01-23T05:58:46.536Z,103014.41
2023-01-23T05:59:48.264Z,103009.22
2023-01-23T06:00:50.969Z,103013.59
2023-01-23T06:01:52.969Z,103005.75
2023-01-23T06:02:56.691Z,103010.19
2023-01-23T06:03:58.284Z,103005.00
2023-01-23T06:05:02.160Z,103005.91
2023-01-23T06:06:03.904Z,103005.03
2023-01-23T06:07:06.484Z,103011.19
2023-01-23T06:08:08.106Z,103010.34
2023-01-23T06:09:10.649Z,103008.63
2023-01-23T06:10:12.178Z,103008.69
2023-01-23T06:11:14.987Z,103016.56
2023-01-23T06:12:16.532Z,103020.09
2023-01-23T06:13:19.061Z,103025.34
2023-01-23T06:14:20.973Z,103017.53
2023-01-23T06:15:23.535Z,103024.53
2023-01-23T06:16:25.493Z,103021.03
2023-01-23T06:17:27.987Z,103022.81
2023-01-23T06:18:29.894Z,103029.81
2023-01-23T06:19:32.548Z,103026.31
2023-01-23T06:20:35.555Z,103023.69
2023-01-23T06:21:38.047Z,103024.56
2023-01-23T06:22:39.797Z,103030.63
2023-01-23T06:23:42.302Z,103037.63
2023-01-23T06:24:43.829Z,103026.25
2023-01-23T06:25:46.329Z,103034.09
2023-01-23T06:26:48.882Z,103033.19
2023-01-23T06:27:50.408Z,103039.28
2023-01-23T06:28:53.006Z,103044.50
2023-01-23T06:29:55.498Z,103043.56
2023-01-23T06:31:00.845Z,103044.44
2023-01-23T06:32:03.982Z,103046.19
2023-01-23T06:33:05.541Z,103057.50
2023-01-23T06:34:08.495Z,103049.66
2023-01-23T06:35:10.394Z,103055.75
2023-01-23T06:36:16.892Z,103053.13
2023-01-23T06:37:18.647Z,103055.72
2023-01-23T06:38:21.230Z,103057.47
2023-01-23T06:39:24.018Z,103053.97
2023-01-23T06:40:25.663Z,103053.06
2023-01-23T06:41:28.218Z,103057.41
2023-01-23T06:42:29.765Z,103056.50
2023-01-23T06:43:32.364Z,103057.38
2023-01-23T06:44:33.937Z,103059.13
2023-01-23T06:45:36.469Z,103056.50
2023-01-23T06:46:39.563Z,103059.13
2023-01-23T06:47:41.109Z,103059.13
2023-01-23T06:48:43.602Z,103050.34
2023-01-23T06:49:45.149Z,103053.88
2023-01-23T06:50:47.732Z,103061.75
2023-01-23T06:51:50.634Z,103067.88
2023-01-23T06:52:53.189Z,103060.03
2023-01-23T06:53:56.167Z,103073.13
2023-01-23T06:54:58.677Z,103065.25
2023-01-23T06:56:01.197Z,103067.88
2023-01-23T06:57:04.574Z,103072.25
2023-01-23T06:58:06.414Z,103070.50
2023-01-23T06:59:09.396Z,103067.00
2023-01-23T07:00:12.199Z,103071.34
2023-01-23T07:01:19.569Z,103070.50
2023-01-23T07:02:21.171Z,103076.59
2023-01-23T07:03:23.682Z,103078.31
2023-01-23T07:04:26.232Z,103083.56
2023-01-23T07:05:28.025Z,103083.56
2023-01-23T07:06:31.675Z,103085.31
2023-01-23T07:07:34.777Z,103084.44
2023-01-23T07:08:37.800Z,103089.69
2023-01-23T07:09:39.331Z,103093.19
2023-01-23T07:10:42.312Z,103091.44
2023-01-23T07:11:45.442Z,103094.94
2023-01-23T07:12:47.962Z,103091.44
2023-01-23T07:13:49.464Z,103092.31
2023-01-23T07:14:51.942Z,103100.19
2023-01-23T07:15:54.521Z,103099.31
2023-01-23T07:16:57.231Z,103101.06
2023-01-23T07:17:59.757Z,103101.94
2023-01-23T07:19:02.421Z,103096.66
2023-01-23T07:20:05.531Z,103095.78
2023-01-23T07:21:09.231Z,103100.97
2023-01-23T07:22:10.794Z,103098.34
2023-01-23T07:23:14.668Z,103094.81
2023-01-23T07:24:16.191Z,103101.75
2023-01-23T07:25:18.753Z,103100.88
2023-01-23T07:26:20.370Z,103100.88
2023-01-23T07:27:22.954Z,103105.25
2023-01-23T07:28:24.461Z,103114.00
2023-01-23T07:29:27.069Z,103110.50
2023-01-23T07:30:29.352Z,103109.63
2023-01-23T07:31:32.138Z,103114.88
2023-01-23T07:32:33.723Z,103114.88
2023-01-23T07:33:36.377Z,103116.59
2023-01-23T07:34:37.975Z,103109.59
2023-01-23T07:35:41.137Z,103106.97
2023-01-23T07:36:42.765Z,103120.97
2023-01-23T07:37:45.254Z,103120.13
2023-01-23T07:38:48.209Z,103121.88
2023-01-23T07:39:50.748Z,103117.50
2023-01-23T07:40:52.784Z,103116.59
2023-01-23T07:41:55.334Z,103114.88
2023-01-23T07:42:56.987Z,103120.13
2023-01-23T07:43:59.478Z,103122.75
2023-01-23T07:45:01.046Z,103116.59
2023-01-23T07:46:03.653Z,103122.72
2023-01-23T07:47:05.264Z,103121.84
2023-01-23T07:48:08.349Z,103120.97
2023-01-23T07:49:10.991Z,103124.47
2023-01-23T07:50:14.653Z,103133.16
2023-01-23T07:51:17.222Z,103134.91
2023-01-23T07:52:19.214Z,103131.38
2023-01-23T07:53:21.758Z,103128.75
2023-01-23T07:54:25.735Z,103120.88
2023-01-23T07:55:27.265Z,103122.63
2023-01-23T07:56:29.809Z,103127.88
2023-01-23T07:57:33.837Z,103123.50
2023-01-23T07:58:37.105Z,103127.88
2023-01-23T07:59:38.665Z,103128.75
2023-01-23T08:00:42.457Z,103131.38
2023-01-23T08:01:44.276Z,103128.75
2023-01-23T08:02:46.902Z,103133.13
2023-01-23T08:03:49.445Z,103135.75
2023-01-23T08:04:52.087Z,103130.50
2023-01-23T08:05:54.610Z,103130.50
2023-01-23T08:06:57.199Z,103134.00
2023-01-23T08:08:12.042Z,103138.31
2023-01-23T08:09:15.866Z,103137.44
2023-01-23T08:10:19.326Z,103140.91
2023-01-23T08:11:23.873Z,103142.66
2023-01-23T08:12:25.422Z,103129.53
2023-01-23T08:13:27.899Z,103133.03
2023-01-23T08:14:30.455Z,103133.03
2023-01-23T08:15:32.974Z,103133.03
2023-01-23T08:16:35.608Z,103129.56
2023-01-23T08:17:38.293Z,103135.66
2023-01-23T08:18:39.828Z,103132.16
2023-01-23T08:19:42.356Z,103125.16
2023-01-23T08:20:43.974Z,103127.78
2023-01-23T08:21:46.890Z,103119.03
2023-01-23T08:22:49.680Z,103130.34
2023-01-23T08:23:51.232Z,103122.47
2023-01-23T08:24:53.740Z,103123.34
2023-01-23T08:25:59.153Z,103115.44
2023-01-23T08:27:00.732Z,103129.44
2023-01-23T08:28:03.193Z,103114.53
2023-01-23T08:29:05.738Z,103121.53
2023-01-23T08:30:09.400Z,103117.22
2023-01-23T08:31:13.370Z,103124.22
2023-01-23T08:32:16.433Z,103122.47
2023-01-23T08:33:19.511Z,103121.59
2023-01-23T08:34:22.040Z,103132.06
2023-01-23T08:35:24.919Z,103128.56
2023-01-23T08:36:27.487Z,103137.31
2023-01-23T08:37:30.051Z,103129.41
2023-01-23T08:38:32.373Z,103139.00
2023-01-23T08:39:35.637Z,103140.75
2023-01-23T08:40:37.229Z,103147.75
2023-01-23T08:41:41.035Z,103146.88
2023-01-23T08:42:42.578Z,103149.47
2023-01-23T08:43:45.094Z,103158.19
2023-01-23T08:44:46.612Z,103159.09
2023-01-23T08:45:51.401Z,103153.84
2023-01-23T08:46:53.924Z,103165.16
2023-01-23T08:47:57.582Z,103159.03
2023-01-23T08:49:00.055Z,103145.88
2023-01-23T08:50:03.755Z,103149.34
2023-01-23T08:51:25.536Z,103154.59
2023-01-23T08:52:28.658Z,103150.22
2023-01-23T08:53:31.996Z,103144.94
2023-01-23T08:54:34.488Z,103152.81
2023-01-23T08:55:38.756Z,103145.81
2023-01-23T08:56:42.795Z,103154.56
2023-01-23T08:57:44.391Z,103147.56
2023-01-23T08:58:47.903Z,103154.50
2023-01-23T08:59:50.688Z,103157.97
2023-01-23T09:00:52.409Z,103160.53
2023-01-23T09:01:55.023Z,103157.88
2023-01-23T09:03:00.215Z,103157.84
2023-01-23T09:04:02.745Z,103165.69
2023-01-23T09:05:04.925Z,103158.69
2023-01-23T09:06:07.946Z,103163.06
2023-01-23T09:07:09.582Z,103163.94
2023-01-23T09:08:12.134Z,103165.63
2023-01-23T09:09:14.677Z,103163.88
2023-01-23T09:10:17.299Z,103168.25
2023-01-23T09:11:18.999Z,103168.25
2023-01-23T09:12:22.914Z,103168.25
2023-01-23T09:13:24.444Z,103163.88
2023-01-23T09:14:26.942Z,103171.72
2023-01-23T09:15:29.760Z,103171.72
2023-01-23T09:16:32.281Z,103166.41
2023-01-23T09:17:34.824Z,103167.28
2023-01-23T09:18:38.237Z,103171.66
2023-01-23T09:19:40.761Z,103174.28
2023-01-23T09:20:42.278Z,103169.91
2023-01-23T09:21:44.835Z,103170.78
2023-01-23T09:22:46.474Z,103169.91
2023-01-23T09:23:48.985Z,103176.00
2023-01-23T09:24:50.492Z,103171.56
2023-01-23T09:25:53.186Z,103171.50
2023-01-23T09:26:55.694Z,103165.38
2023-01-23T09:27:59.576Z,103165.31
2023-01-23T09:29:02.538Z,103160.00
2023-01-23T09:30:04.636Z,103161.72
2023-01-23T09:31:08.984Z,103162.59
2023-01-23T09:32:11.655Z,103166.09
2023-01-23T09:33:14.501Z,103171.38
2023-01-23T09:34:17.453Z,103170.50
2023-01-23T09:35:20.006Z,103170.53
2023-01-23T09:36:37.519Z,103169.69
2023-01-23T09:38:04.570Z,103172.31
2023-01-23T09:39:07.089Z,103174.94
2023-01-23T09:40:16.450Z,103172.28
2023-01-23T09:41:22.118Z,103175.78
2023-01-23T09:42:29.006Z,103174.00
2023-01-23T09:43:42.132Z,103175.75
2023-01-23T09:44:48.563Z,103177.47
2023-01-23T09:46:01.336Z,103183.56
2023-01-23T09:47:08.833Z,103180.03
2023-01-23T09:50:14.876Z,103183.44
2023-01-23T09:51:24.511Z,103178.16
2023-01-23T09:52:29.709Z,103183.38
2023-01-23T09:53:36.410Z,103179.81
2023-01-23T09:54:44.350Z,103182.47
2023-01-23T09:55:50.929Z,103176.38
2023-01-23T09:56:55.290Z,103186.84
2023-01-23T09:57:59.862Z,103175.44
2023-01-23T09:59:14.395Z,103185.06
2023-01-23T10:00:23.588Z,103178.94
2023-01-23T10:01:28.085Z,103185.09
2023-01-23T10:02:31.040Z,103187.69
2023-01-23T10:03:33.911Z,103191.16
2023-01-23T10:04:36.204Z,103187.59
2023-01-23T10:05:47.387Z,103183.22
2023-01-23T10:07:10.192Z,103186.66
2023-01-23T10:08:23.274Z,103184.91
2023-01-23T10:09:41.246Z,103188.41
2023-01-23T10:10:55.027Z,103193.66
2023-01-23T10:12:04.511Z,103189.22
2023-01-23T10:13:16.512Z,103190.16
2023-01-23T10:14:40.318Z,103188.34
2023-01-23T10:16:01.834Z,103190.09
2023-01-23T10:17:14.073Z,103184.84
2023-01-23T10:18:22.646Z,103190.91
2023-01-23T10:19:41.646Z,103184.78
2023-01-23T10:20:52.215Z,103183.84
2023-01-23T10:22:02.580Z,103187.38
2023-01-23T10:23:14.090Z,103189.97
2023-01-23T10:24:40.076Z,103188.25
2023-01-23T10:25:43.857Z,103189.09
2023-01-23T10:26:47.975Z,103185.59
2023-01-23T10:27:52.503Z,103189.09
2023-01-23T10:29:00.956Z,103185.53
2023-01-23T10:30:14.505Z,103189.91
2023-01-23T10:31:29.412Z,103177.63
2023-01-23T10:32:38.386Z,103181.16
2023-01-23T10:33:49.540Z,103181.97
2023-01-23T10:34:57.971Z,103189.88
2023-01-23T10:36:06.959Z,103179.34
2023-01-23T10:37:18.661Z,103175.81
2023-01-23T10:38:28.056Z,103174.06
2023-01-23T10:39:40.458Z,103185.47
2023-01-23T10:41:00.398Z,103187.22
2023-01-23T10:42:03.211Z,103181.97
2023-01-23T10:43:12.506Z,103182.78
2023-01-23T10:44:17.350Z,103187.16
2023-01-23T10:45:23.633Z,103189.75
2023-01-23T10:46:32.072Z,103193.28
2023-01-23T10:47:38.707Z,103195.84
2023-01-23T10:48:44.363Z,103197.59
2023-01-23T10:49:47.879Z,103189.72
2023-01-23T10:50:49.426Z,103185.28
2023-01-23T10:51:51.991Z,103191.41
2023-01-23T10:53:07.848Z,103187.03
2023-01-23T10:54:29.895Z,103190.53
2023-01-23T10:55:33.622Z,103189.66
2023-01-23T10:56:38.952Z,103188.78
2023-01-23T10:57:48.842Z,103188.78
2023-01-23T10:58:54.971Z,103181.75
2023-01-23T11:00:01.415Z,103187.88
2023-01-23T11:01:26.966Z,103195.72
2023-01-23T11:02:31.359Z,103189.53
2023-01-23T11:03:34.915Z,103193.03
2023-01-23T11:04:37.692Z,103198.28
2023-01-23T11:05:52.159Z,103193.91
2023-01-23T11:07:07.200Z,103189.50
2023-01-23T11:08:23.990Z,103188.63
2023-01-23T11:09:25.572Z,103183.38
2023-01-23T11:10:29.431Z,103179.00
2023-01-23T11:11:32.612Z,103189.53
2023-01-23T11:12:47.087Z,103185.16
2023-01-23T11:13:51.084Z,103184.28
2023-01-23T11:15:13.087Z,103181.63
2023-01-23T11:16:17.155Z,103177.31
2023-01-23T11:17:26.327Z,103180.81
2023-01-23T11:18:35.862Z,103177.31
2023-01-23T11:19:38.515Z,103181.63
2023-01-23T11:20:43.461Z,103180.69
2023-01-23T11:21:54.034Z,103178.91
2023-01-23T11:23:15.520Z,103175.38
2023-01-23T11:24:27.825Z,103177.13
2023-01-23T11:25:38.902Z,103177.13
2023-01-23T11:26:41.411Z,103177.13
2023-01-23T11:27:58.553Z,103176.25
2023-01-23T11:29:01.104Z,103178.06
2023-01-23T11:30:39.207Z,103175.44
2023-01-23T11:31:42.964Z,103178.97
2023-01-23T11:32:56.050Z,103179.88
2023-01-23T11:34:04.922Z,103177.25
2023-01-23T11:35:18.970Z,103174.63
2023-01-23T11:36:44.011Z,103171.97
2023-01-23T11:37:46.944Z,103171.97
2023-01-23T11:38:54.669Z,103166.72
2023-01-23T11:40:03.135Z,103164.94
2023-01-23T11:41:05.408Z,103160.56
2023-01-23T11:42:11.593Z,103157.00
2023-01-23T11:43:14.661Z,103163.13
2023-01-23T11:44:21.120Z,103158.69
2023-01-23T11:45:41.093Z,103155.19
2023-01-23T11:47:01.429Z,103163.06
2023-01-23T11:48:22.019Z,103161.31
2023-01-23T11:49:49.311Z,103163.00
2023-01-23T11:51:01.127Z,103172.59
2023-01-23T11:52:18.905Z,103160.25
2023-01-23T11:53:41.113Z,103162.88
2023-01-23T11:55:04.552Z,103155.81
2023-01-23T11:56:23.106Z,103161.88
2023-01-23T11:57:37.430Z,103158.34
2023-01-23T11:59:05.421Z,103161.81
2023-01-23T12:00:22.170Z,103160.94
2023-01-23T12:01:32.305Z,103160.09
2023-01-23T12:03:08.469Z,103161.84
2023-01-23T12:04:44.895Z,103154.81
2023-01-23T12:07:51.275Z,103160.19
2023-01-23T12:09:05.544Z,103159.34
2023-01-23T12:10:24.262Z,103159.34
2023-01-23T12:11:36.743Z,103169.81
2023-01-23T12:12:59.387Z,103170.63
2023-01-23T12:14:10.721Z,103159.16
2023-01-23T12:15:19.416Z,103161.72
2023-01-23T12:16:28.347Z,103156.31
2023-01-23T12:17:41.802Z,103169.41
2023-01-23T12:18:50.951Z,103157.06
2023-01-23T12:20:27.079Z,103157.06
2023-01-23T12:21:39.300Z,103160.63
2023-01-23T12:22:56.833Z,103160.63
2023-01-23T12:24:13.465Z,103148.28
2023-01-23T12:25:28.966Z,103156.16